Time;durP1;ratioP1;P1;durP2;ratioP2;P2;SDS_P1;SDS_P2;PMS_P1;PMS_P2;Temp;Humidity;BMP_temperature;BMP_pressure;BME280_temperature;BME280_humidity;BME280_pressure;Samples;Min_cycle;Max_cycle;Signal;HPM_P1;HPM_P2
2022/11/15 00:01:37;;;;;;;;;;;21.60;42.80;;;;;;484150;246;1184;-50
2022/11/15 00:03:38;;;;;;;;;;;21.60;42.90;;;;;;484182;246;1198;-49
2022/11/15 00:05:39;;;;;;;;;;;21.60;42.90;;;;;;484278;246;1205;-50
2022/11/15 00:07:41;;;;;;;;;;;21.60;42.90;;;;;;484418;246;1295;-49
2022/11/15 00:09:42;;;;;;;;;;;21.60;43.00;;;;;;484066;246;1342;-50
2022/11/15 00:11:43;;;;;;;;;;;21.60;43.00;;;;;;484176;246;1229;-49
2022/11/15 00:13:45;;;;;;;;;;;21.50;43.00;;;;;;484083;246;2184;-49
2022/11/15 00:15:46;;;;;;;;;;;21.50;43.00;;;;;;484621;246;1741;-50
2022/11/15 00:17:47;;;;;;;;;;;21.60;43.00;;;;;;484173;246;1240;-50
2022/11/15 00:19:49;;;;;;;;;;;21.50;43.00;;;;;;484342;246;1200;-50
2022/11/15 00:21:50;;;;;;;;;;;21.60;43.00;;;;;;484071;246;1327;-50
2022/11/15 00:23:51;;;;;;;;;;;21.50;43.00;;;;;;484161;246;1202;-49
2022/11/15 00:25:53;;;;;;;;;;;21.50;43.10;;;;;;484282;246;1239;-50
2022/11/15 00:27:54;;;;;;;;;;;21.60;43.10;;;;;;484161;242;1194;-49
2022/11/15 00:29:55;;;;;;;;;;;21.50;43.10;;;;;;484368;246;1200;-49
2022/11/15 00:31:57;;;;;;;;;;;21.50;43.00;;;;;;484124;246;1293;-49
2022/11/15 00:33:58;;;;;;;;;;;21.50;43.00;;;;;;484038;246;2208;-50
2022/11/15 00:35:59;;;;;;;;;;;21.60;43.00;;;;;;484581;246;1200;-49
2022/11/15 00:38:01;;;;;;;;;;;21.60;42.90;;;;;;484300;246;1398;-49
2022/11/15 00:40:02;;;;;;;;;;;21.60;43.00;;;;;;484577;246;1269;-50
2022/11/15 00:42:03;;;;;;;;;;;21.50;43.00;;;;;;484621;246;1245;-49
2022/11/15 00:44:05;;;;;;;;;;;21.50;43.00;;;;;;484035;246;1473;-50
2022/11/15 00:46:07;;;;;;;;;;;21.50;43.10;;;;;;484140;246;1345;-49
2022/11/15 00:48:07;;;;;;;;;;;21.50;43.10;;;;;;484238;246;2605;-50
2022/11/15 00:50:09;;;;;;;;;;;21.50;43.10;;;;;;484578;246;1212;-49
2022/11/15 00:52:10;;;;;;;;;;;21.50;43.10;;;;;;484612;246;1213;-49
2022/11/15 00:54:11;;;;;;;;;;;21.50;43.10;;;;;;484183;246;2192;-49
2022/11/15 00:56:13;;;;;;;;;;;21.40;43.10;;;;;;484517;246;1369;-50
2022/11/15 00:58:14;;;;;;;;;;;21.40;43.10;;;;;;484565;246;1278;-49
2022/11/15 01:00:15;;;;;;;;;;;21.40;43.20;;;;;;484622;246;1204;-49
2022/11/15 01:02:16;;;;;;;;;;;21.40;43.30;;;;;;484473;246;1270;-49
2022/11/15 01:04:18;;;;;;;;;;;21.40;43.30;;;;;;484556;246;1260;-49
2022/11/15 01:06:20;;;;;;;;;;;21.40;43.30;;;;;;484172;246;1284;-49
2022/11/15 01:08:21;;;;;;;;;;;21.40;43.30;;;;;;483893;246;1270;-50
2022/11/15 01:10:22;;;;;;;;;;;21.40;43.30;;;;;;483922;246;1225;-50
2022/11/15 01:12:23;;;;;;;;;;;21.50;43.30;;;;;;484375;246;1294;-49
2022/11/15 01:14:25;;;;;;;;;;;21.40;43.10;;;;;;484308;246;2180;-49
2022/11/15 01:16:26;;;;;;;;;;;21.50;43.20;;;;;;484461;246;1200;-49
2022/11/15 01:18:27;;;;;;;;;;;21.50;43.10;;;;;;484368;246;1301;-49
2022/11/15 01:20:29;;;;;;;;;;;21.50;43.10;;;;;;484161;246;1277;-50
2022/11/15 01:22:30;;;;;;;;;;;21.50;43.10;;;;;;484064;246;1263;-49
2022/11/15 01:24:31;;;;;;;;;;;21.50;43.10;;;;;;484160;246;1215;-49
2022/11/15 01:26:33;;;;;;;;;;;21.50;43.00;;;;;;484393;246;1246;-49
2022/11/15 01:28:34;;;;;;;;;;;21.50;43.00;;;;;;484139;246;1542;-49
2022/11/15 01:30:35;;;;;;;;;;;21.50;43.00;;;;;;484211;246;1391;-49
2022/11/15 01:32:37;;;;;;;;;;;21.60;43.00;;;;;;484508;246;1219;-49
2022/11/15 01:34:38;;;;;;;;;;;21.60;42.90;;;;;;484518;246;2105;-50
2022/11/15 01:36:39;;;;;;;;;;;21.60;42.90;;;;;;484603;246;1210;-49
2022/11/15 01:38:41;;;;;;;;;;;21.70;42.70;;;;;;484077;246;1366;-50
2022/11/15 01:40:42;;;;;;;;;;;21.80;42.50;;;;;;484285;246;1206;-50
2022/11/15 01:42:43;;;;;;;;;;;21.90;42.30;;;;;;484129;246;1359;-50
2022/11/15 01:44:45;;;;;;;;;;;22.00;42.10;;;;;;484133;246;1310;-50
2022/11/15 01:46:46;;;;;;;;;;;22.10;42.00;;;;;;484417;246;1292;-49
2022/11/15 01:48:47;;;;;;;;;;;22.00;42.00;;;;;;484608;246;1386;-49
2022/11/15 01:50:49;;;;;;;;;;;21.90;42.20;;;;;;484276;246;1181;-48
2022/11/15 01:52:50;;;;;;;;;;;21.80;42.40;;;;;;484282;246;1215;-49
2022/11/15 01:54:51;;;;;;;;;;;21.70;42.60;;;;;;484139;246;1311;-49
2022/11/15 01:56:53;;;;;;;;;;;21.70;42.80;;;;;;484236;246;1465;-49
2022/11/15 01:58:54;;;;;;;;;;;21.60;42.80;;;;;;484369;246;1356;-49
2022/11/15 02:00:55;;;;;;;;;;;21.60;42.90;;;;;;484621;246;1165;-50
2022/11/15 02:02:57;;;;;;;;;;;21.60;42.90;;;;;;484200;246;1314;-50
2022/11/15 02:04:58;;;;;;;;;;;21.50;43.00;;;;;;483995;246;1231;-49
2022/11/15 02:06:59;;;;;;;;;;;21.50;42.90;;;;;;484602;246;1191;-49
2022/11/15 02:09:01;;;;;;;;;;;21.50;43.00;;;;;;484094;246;1194;-49
2022/11/15 02:11:02;;;;;;;;;;;21.60;43.00;;;;;;484540;246;1231;-49
2022/11/15 02:13:03;;;;;;;;;;;21.50;42.90;;;;;;484168;246;2199;-49
2022/11/15 02:15:05;;;;;;;;;;;21.60;43.00;;;;;;484577;246;1301;-49
2022/11/15 02:17:06;;;;;;;;;;;21.50;42.90;;;;;;484609;246;1231;-49
2022/11/15 02:19:07;;;;;;;;;;;21.60;43.00;;;;;;484177;246;1228;-50
2022/11/15 02:21:08;;;;;;;;;;;21.60;42.90;;;;;;484498;246;1559;-49
2022/11/15 02:23:10;;;;;;;;;;;21.60;42.80;;;;;;484337;246;1382;-50
2022/11/15 02:25:11;;;;;;;;;;;21.60;42.80;;;;;;484208;246;1209;-49
2022/11/15 02:27:12;;;;;;;;;;;21.60;42.80;;;;;;484370;246;1196;-50
2022/11/15 02:29:14;;;;;;;;;;;21.60;42.80;;;;;;484387;246;1184;-50
2022/11/15 02:31:15;;;;;;;;;;;21.60;42.80;;;;;;484173;246;1213;-49
2022/11/15 02:33:16;;;;;;;;;;;21.60;42.80;;;;;;484091;246;2189;-50
2022/11/15 02:35:18;;;;;;;;;;;21.60;42.90;;;;;;484077;246;1220;-48
2022/11/15 02:37:19;;;;;;;;;;;21.60;42.90;;;;;;484551;246;1353;-49
2022/11/15 02:39:20;;;;;;;;;;;21.50;42.90;;;;;;484110;246;1239;-49
2022/11/15 02:41:22;;;;;;;;;;;21.50;43.00;;;;;;484293;246;1225;-49
2022/11/15 02:45:43;;;;;;;;;;;21.50;43.00;;;;;;484167;246;1220;-49
2022/11/15 02:47:44;;;;;;;;;;;21.50;43.10;;;;;;484296;246;1211;-49
2022/11/15 02:49:45;;;;;;;;;;;21.50;43.10;;;;;;484224;246;1333;-49
2022/11/15 02:51:47;;;;;;;;;;;21.40;43.10;;;;;;484609;246;1288;-50
2022/11/15 02:53:48;;;;;;;;;;;21.40;43.10;;;;;;484063;246;2215;-49
2022/11/15 02:55:49;;;;;;;;;;;21.40;43.10;;;;;;484102;246;1342;-49
2022/11/15 02:57:51;;;;;;;;;;;21.40;43.10;;;;;;484523;246;1396;-49
2022/11/15 02:59:52;;;;;;;;;;;21.50;43.10;;;;;;484146;246;1243;-49
2022/11/15 03:01:53;;;;;;;;;;;21.40;43.10;;;;;;484151;246;1252;-50
2022/11/15 03:03:54;;;;;;;;;;;21.40;43.20;;;;;;484485;246;1371;-50
2022/11/15 03:05:56;;;;;;;;;;;21.30;43.20;;;;;;484037;246;1330;-49
2022/11/15 03:07:57;;;;;;;;;;;21.40;43.30;;;;;;484294;246;1376;-49
2022/11/15 03:09:58;;;;;;;;;;;21.40;43.20;;;;;;484231;246;1468;-49
2022/11/15 03:12:00;;;;;;;;;;;21.40;43.30;;;;;;484278;246;1342;-49
2022/11/15 03:14:01;;;;;;;;;;;21.40;43.20;;;;;;484551;246;2216;-49
2022/11/15 03:16:02;;;;;;;;;;;21.40;43.20;;;;;;484536;246;1342;-50
2022/11/15 03:18:04;;;;;;;;;;;21.40;43.10;;;;;;484187;246;1232;-49
2022/11/15 03:20:05;;;;;;;;;;;21.50;43.10;;;;;;484567;246;1208;-49
2022/11/15 03:22:06;;;;;;;;;;;21.50;43.00;;;;;;484227;246;1772;-49
2022/11/15 03:24:08;;;;;;;;;;;21.50;43.00;;;;;;484323;246;1313;-49
2022/11/15 03:26:09;;;;;;;;;;;21.50;42.90;;;;;;484179;246;1276;-50
2022/11/15 03:28:10;;;;;;;;;;;21.50;42.90;;;;;;484162;246;1192;-50
2022/11/15 03:30:12;;;;;;;;;;;21.60;42.90;;;;;;484589;246;1216;-49
2022/11/15 03:32:13;;;;;;;;;;;21.60;42.90;;;;;;484628;246;1277;-50
2022/11/15 03:34:15;;;;;;;;;;;21.50;42.80;;;;;;484362;246;2184;-50
2022/11/15 03:36:16;;;;;;;;;;;21.50;42.90;;;;;;484490;246;1248;-50
2022/11/15 03:38:17;;;;;;;;;;;21.50;42.90;;;;;;484144;246;1326;-49
2022/11/15 03:40:19;;;;;;;;;;;21.50;42.90;;;;;;484396;246;1627;-49
2022/11/15 03:42:20;;;;;;;;;;;21.50;43.00;;;;;;484638;246;1266;-49
2022/11/15 03:44:21;;;;;;;;;;;21.40;43.00;;;;;;484603;246;1251;-49
2022/11/15 03:46:23;;;;;;;;;;;21.40;43.10;;;;;;484599;246;1190;-49
2022/11/15 03:48:24;;;;;;;;;;;21.40;43.10;;;;;;484370;246;1174;-49
2022/11/15 03:50:25;;;;;;;;;;;21.40;43.20;;;;;;484640;246;1233;-49
2022/11/15 03:52:27;;;;;;;;;;;21.40;43.20;;;;;;484301;246;1091;-49
2022/11/15 03:54:28;;;;;;;;;;;21.40;43.20;;;;;;484188;246;2204;-50
2022/11/15 03:56:29;;;;;;;;;;;21.40;43.10;;;;;;484442;246;1172;-49
2022/11/15 03:58:31;;;;;;;;;;;21.40;43.20;;;;;;484636;246;1077;-49
2022/11/15 04:00:32;;;;;;;;;;;21.40;43.10;;;;;;484657;246;1078;-49
2022/11/15 04:02:33;;;;;;;;;;;21.40;43.20;;;;;;484385;246;1099;-49
2022/11/15 04:04:35;;;;;;;;;;;21.30;43.20;;;;;;484257;246;1546;-50
2022/11/15 04:06:36;;;;;;;;;;;21.40;43.30;;;;;;484656;246;1230;-49
2022/11/15 04:08:37;;;;;;;;;;;21.30;43.20;;;;;;484110;246;1228;-50
2022/11/15 04:10:39;;;;;;;;;;;21.40;43.20;;;;;;484159;246;1283;-49
2022/11/15 04:12:42;;;;;;;;;;;21.40;43.20;;;;;;484440;246;1214;-49
2022/11/15 04:15:06;;;;;;;;;;;21.40;43.10;;;;;;484478;246;2156;-49
2022/11/15 04:16:43;;;;;;;;;;;21.40;43.10;;;;;;482868;246;1364;-50
2022/11/15 04:18:44;;;;;;;;;;;21.50;43.00;;;;;;484155;246;1255;-49
2022/11/15 04:25:23;;;;;;;;;;;21.50;42.80;;;;;;484177;246;1431;-50
2022/11/15 04:27:25;;;;;;;;;;;21.50;42.90;;;;;;484542;246;1231;-49
2022/11/15 04:29:35;;;;;;;;;;;21.50;42.90;;;;;;484183;246;1310;-50
2022/11/15 04:31:36;;;;;;;;;;;21.50;42.90;;;;;;484365;246;1282;-49
2022/11/15 04:33:38;;;;;;;;;;;21.50;42.90;;;;;;484598;246;1166;-49
2022/11/15 04:35:39;;;;;;;;;;;21.50;42.90;;;;;;484548;246;2120;-50
2022/11/15 04:37:40;;;;;;;;;;;21.50;43.00;;;;;;484631;246;1292;-49
2022/11/15 04:39:42;;;;;;;;;;;21.40;43.00;;;;;;484280;246;1197;-49
2022/11/15 04:41:43;;;;;;;;;;;21.40;43.10;;;;;;484215;246;1441;-49
2022/11/15 04:43:44;;;;;;;;;;;21.30;43.10;;;;;;484550;246;1367;-49
2022/11/15 04:45:46;;;;;;;;;;;21.30;43.20;;;;;;484499;246;1197;-49
2022/11/15 04:47:47;;;;;;;;;;;21.30;43.20;;;;;;484363;246;1380;-50
2022/11/15 04:49:48;;;;;;;;;;;21.30;43.20;;;;;;484130;246;1257;-49
2022/11/15 04:51:50;;;;;;;;;;;21.40;43.30;;;;;;484180;246;1256;-49
2022/11/15 04:53:51;;;;;;;;;;;21.30;43.20;;;;;;484599;246;1199;-50
2022/11/15 04:55:52;;;;;;;;;;;21.40;43.20;;;;;;484129;246;2105;-49
2022/11/15 04:57:54;;;;;;;;;;;21.30;43.10;;;;;;484148;246;1240;-49
2022/11/15 04:59:55;;;;;;;;;;;21.30;43.10;;;;;;484148;246;1245;-50
2022/11/15 05:01:56;;;;;;;;;;;21.30;43.10;;;;;;484301;246;1190;-49
2022/11/15 05:06:17;;;;;;;;;;;21.40;43.20;;;;;;484629;246;1332;-49
2022/11/15 05:08:19;;;;;;;;;;;21.40;43.00;;;;;;484602;246;1376;-49
2022/11/15 05:10:20;;;;;;;;;;;21.40;43.00;;;;;;484300;246;1295;-49
2022/11/15 05:12:21;;;;;;;;;;;21.50;43.00;;;;;;484402;246;1419;-49
2022/11/15 05:14:22;;;;;;;;;;;21.40;43.00;;;;;;484181;246;2204;-50
2022/11/15 05:16:24;;;;;;;;;;;21.40;42.90;;;;;;484352;246;1197;-50
2022/11/15 05:18:25;;;;;;;;;;;21.40;43.00;;;;;;484166;246;1162;-49
2022/11/15 05:20:26;;;;;;;;;;;21.40;43.00;;;;;;484194;246;1276;-50
2022/11/15 05:22:28;;;;;;;;;;;21.40;43.00;;;;;;484165;246;1356;-49
2022/11/15 05:24:29;;;;;;;;;;;21.40;43.00;;;;;;484300;246;1325;-49
2022/11/15 05:26:30;;;;;;;;;;;21.50;43.00;;;;;;484160;246;2270;-50
2022/11/15 05:28:32;;;;;;;;;;;21.50;43.00;;;;;;484087;246;1330;-49
2022/11/15 05:30:33;;;;;;;;;;;21.40;43.00;;;;;;484387;246;1139;-50
2022/11/15 05:32:34;;;;;;;;;;;21.40;42.90;;;;;;484273;246;1267;-49
2022/11/15 05:34:36;;;;;;;;;;;21.40;43.00;;;;;;483895;246;2140;-49
2022/11/15 05:36:37;;;;;;;;;;;21.40;43.10;;;;;;483999;246;1447;-49
2022/11/15 05:38:39;;;;;;;;;;;21.40;43.10;;;;;;484586;246;1059;-49
2022/11/15 05:40:40;;;;;;;;;;;21.40;43.10;;;;;;484064;246;1204;-49
2022/11/15 05:42:41;;;;;;;;;;;21.30;43.10;;;;;;484622;246;1152;-49
2022/11/15 05:44:43;;;;;;;;;;;21.30;43.20;;;;;;484118;246;1118;-50
2022/11/15 05:46:44;;;;;;;;;;;21.30;43.20;;;;;;484451;246;1249;-50
2022/11/15 05:48:45;;;;;;;;;;;21.30;43.20;;;;;;484572;246;1216;-49
2022/11/15 05:50:47;;;;;;;;;;;21.40;43.20;;;;;;484571;246;1345;-49
2022/11/15 05:52:48;;;;;;;;;;;21.30;43.10;;;;;;484155;246;1225;-49
2022/11/15 05:54:49;;;;;;;;;;;21.40;43.10;;;;;;484108;246;2176;-50
2022/11/15 05:56:51;;;;;;;;;;;21.40;43.10;;;;;;484233;246;1208;-48
2022/11/15 05:58:52;;;;;;;;;;;21.40;43.10;;;;;;484177;246;1200;-50
2022/11/15 06:00:53;;;;;;;;;;;21.40;43.00;;;;;;484576;246;1612;-50
2022/11/15 06:02:55;;;;;;;;;;;21.40;43.00;;;;;;484586;246;1286;-49
2022/11/15 06:04:56;;;;;;;;;;;21.40;43.00;;;;;;484063;246;1248;-49
2022/11/15 06:06:57;;;;;;;;;;;21.40;42.90;;;;;;484603;246;1266;-49
2022/11/15 06:08:59;;;;;;;;;;;21.40;43.00;;;;;;484034;246;1237;-49
2022/11/15 06:11:00;;;;;;;;;;;21.40;42.90;;;;;;483921;246;1327;-50
2022/11/15 06:13:01;;;;;;;;;;;21.40;42.90;;;;;;484233;246;1240;-49
2022/11/15 06:15:03;;;;;;;;;;;21.40;43.00;;;;;;483926;246;2159;-50
2022/11/15 06:17:04;;;;;;;;;;;21.40;43.00;;;;;;484344;246;1266;-49
2022/11/15 06:19:05;;;;;;;;;;;21.40;43.00;;;;;;484028;246;1657;-49
2022/11/15 06:21:07;;;;;;;;;;;21.50;43.00;;;;;;484293;246;1179;-49
2022/11/15 06:23:08;;;;;;;;;;;21.50;42.90;;;;;;484121;246;1271;-49
2022/11/15 06:25:09;;;;;;;;;;;21.50;42.80;;;;;;484113;246;1257;-50
2022/11/15 06:27:10;;;;;;;;;;;21.50;42.80;;;;;;484165;246;1228;-49
2022/11/15 06:29:12;;;;;;;;;;;21.50;42.90;;;;;;484425;246;1272;-49
2022/11/15 06:31:13;;;;;;;;;;;21.50;42.80;;;;;;484068;246;1285;-49
2022/11/15 06:33:14;;;;;;;;;;;21.50;42.90;;;;;;484461;246;1208;-49
2022/11/15 06:35:16;;;;;;;;;;;21.40;42.80;;;;;;484035;246;2208;-49
2022/11/15 06:37:17;;;;;;;;;;;21.50;42.90;;;;;;484152;246;1214;-49
2022/11/15 06:39:18;;;;;;;;;;;21.40;42.90;;;;;;484539;246;1189;-50
2022/11/15 06:41:21;;;;;;;;;;;21.40;42.90;;;;;;484459;246;1305;-49
2022/11/15 06:43:22;;;;;;;;;;;21.40;43.00;;;;;;484020;246;1232;-49
2022/11/15 06:45:23;;;;;;;;;;;21.40;43.00;;;;;;484471;246;1276;-49
2022/11/15 06:47:24;;;;;;;;;;;21.30;42.90;;;;;;484248;246;1182;-50
2022/11/15 06:49:26;;;;;;;;;;;21.40;43.10;;;;;;484059;246;1373;-49
2022/11/15 06:51:27;;;;;;;;;;;21.30;43.00;;;;;;484126;243;1295;-49
2022/11/15 06:53:28;;;;;;;;;;;21.40;43.10;;;;;;483902;246;1755;-50
2022/11/15 06:55:29;;;;;;;;;;;21.30;43.00;;;;;;484005;246;2184;-49
2022/11/15 06:57:32;;;;;;;;;;;21.40;43.00;;;;;;483991;246;1205;-49
2022/11/15 06:59:33;;;;;;;;;;;21.30;42.90;;;;;;484040;246;1259;-49
2022/11/15 07:01:34;;;;;;;;;;;21.40;43.00;;;;;;483945;246;1202;-49
2022/11/15 07:03:36;;;;;;;;;;;21.30;43.00;;;;;;484064;246;1320;-50
2022/11/15 07:05:37;;;;;;;;;;;21.40;43.00;;;;;;484036;246;1281;-50
2022/11/15 07:07:38;;;;;;;;;;;21.40;43.00;;;;;;484139;246;1424;-50
2022/11/15 07:09:40;;;;;;;;;;;21.40;42.90;;;;;;484025;246;1355;-50
2022/11/15 07:11:41;;;;;;;;;;;21.60;42.80;;;;;;483808;246;1528;-50
2022/11/15 07:13:42;;;;;;;;;;;21.70;42.40;;;;;;484002;246;1129;-50
2022/11/15 07:15:44;;;;;;;;;;;21.90;42.00;;;;;;484161;246;2153;-50
2022/11/15 07:17:45;;;;;;;;;;;22.00;41.70;;;;;;484098;246;1245;-50
2022/11/15 07:19:46;;;;;;;;;;;22.00;41.50;;;;;;484352;246;1232;-50
2022/11/15 07:21:48;;;;;;;;;;;22.10;41.40;;;;;;484021;246;1377;-50
2022/11/15 07:23:49;;;;;;;;;;;22.10;41.40;;;;;;483996;246;1257;-50
2022/11/15 07:25:50;;;;;;;;;;;22.00;41.60;;;;;;484345;246;1226;-51
2022/11/15 07:27:52;;;;;;;;;;;21.90;41.70;;;;;;484030;246;1181;-50
2022/11/15 07:29:53;;;;;;;;;;;21.90;41.60;;;;;;483868;246;1228;-50
2022/11/15 07:31:54;;;;;;;;;;;22.00;41.20;;;;;;483899;246;1329;-50
2022/11/15 07:33:56;;;;;;;;;;;22.10;41.10;;;;;;483986;246;1279;-50
2022/11/15 07:35:57;;;;;;;;;;;22.20;41.20;;;;;;483923;246;2207;-49
2022/11/15 07:37:58;;;;;;;;;;;22.20;41.10;;;;;;484014;246;1252;-50
2022/11/15 07:40:00;;;;;;;;;;;22.00;41.30;;;;;;484062;246;1282;-49
2022/11/15 07:44:20;;;;;;;;;;;21.90;41.80;;;;;;483871;246;1328;-49
2022/11/15 07:46:21;;;;;;;;;;;21.80;41.90;;;;;;483804;246;1338;-49
2022/11/15 07:48:23;;;;;;;;;;;21.70;41.90;;;;;;483845;246;1357;-49
2022/11/15 07:50:24;;;;;;;;;;;21.70;42.00;;;;;;483973;246;1297;-49
2022/11/15 07:52:25;;;;;;;;;;;21.70;42.00;;;;;;483778;246;1649;-50
2022/11/15 07:54:27;;;;;;;;;;;21.70;42.00;;;;;;483646;246;1494;-50
2022/11/15 07:56:28;;;;;;;;;;;21.70;42.10;;;;;;483614;246;2172;-50
2022/11/15 07:58:29;;;;;;;;;;;21.70;42.10;;;;;;483655;246;1270;-49
2022/11/15 08:00:31;;;;;;;;;;;21.70;42.00;;;;;;483546;246;1341;-49
2022/11/15 08:02:32;;;;;;;;;;;21.70;42.10;;;;;;483442;246;1235;-49
2022/11/15 08:04:33;;;;;;;;;;;21.70;42.00;;;;;;483572;246;1191;-50
2022/11/15 08:06:35;;;;;;;;;;;21.70;42.00;;;;;;483641;246;1243;-49
2022/11/15 08:08:36;;;;;;;;;;;21.70;42.00;;;;;;483753;246;1221;-49
2022/11/15 08:10:37;;;;;;;;;;;21.70;42.00;;;;;;483679;246;1200;-48
2022/11/15 08:12:39;;;;;;;;;;;21.70;42.00;;;;;;483749;246;1512;-49
2022/11/15 08:14:40;;;;;;;;;;;21.70;42.00;;;;;;483675;246;1270;-49
2022/11/15 08:16:41;;;;;;;;;;;21.70;42.00;;;;;;483828;246;2192;-49
2022/11/15 08:18:43;;;;;;;;;;;21.60;42.10;;;;;;483770;246;1265;-50
2022/11/15 08:20:44;;;;;;;;;;;21.60;42.10;;;;;;483918;246;1424;-49
2022/11/15 08:22:45;;;;;;;;;;;21.60;42.20;;;;;;483764;246;1561;-50
2022/11/15 08:24:47;;;;;;;;;;;21.60;42.20;;;;;;483857;246;1265;-49
2022/11/15 08:26:48;;;;;;;;;;;21.60;42.20;;;;;;483531;246;1218;-49
2022/11/15 08:28:49;;;;;;;;;;;21.50;42.10;;;;;;483510;246;1349;-49
2022/11/15 08:30:51;;;;;;;;;;;21.50;42.10;;;;;;483292;246;1286;-50
2022/11/15 08:32:52;;;;;;;;;;;21.50;42.10;;;;;;483361;246;1285;-50
2022/11/15 08:34:54;;;;;;;;;;;21.50;42.20;;;;;;483411;246;1343;-49
2022/11/15 08:36:55;;;;;;;;;;;21.50;42.10;;;;;;483338;246;2207;-49
2022/11/15 08:38:56;;;;;;;;;;;21.50;42.10;;;;;;483690;246;1168;-49
2022/11/15 08:40:58;;;;;;;;;;;21.50;42.20;;;;;;483491;246;1242;-49
2022/11/15 08:43:02;;;;;;;;;;;21.50;42.20;;;;;;483598;246;1227;-49
2022/11/15 08:45:01;;;;;;;;;;;21.50;42.10;;;;;;483387;246;1931;-49
2022/11/15 08:47:02;;;;;;;;;;;21.50;42.10;;;;;;483513;246;1380;-49
2022/11/15 08:49:03;;;;;;;;;;;21.60;42.10;;;;;;483812;246;1262;-49
2022/11/15 08:51:05;;;;;;;;;;;21.60;42.00;;;;;;483716;246;1274;-50
2022/11/15 08:53:06;;;;;;;;;;;21.60;41.90;;;;;;483731;246;1177;-50
2022/11/15 08:55:07;;;;;;;;;;;21.70;41.90;;;;;;483771;246;2573;-49
2022/11/15 08:57:09;;;;;;;;;;;21.70;41.80;;;;;;483702;246;2195;-49
2022/11/15 08:59:10;;;;;;;;;;;21.70;41.90;;;;;;483775;246;1252;-49
2022/11/15 09:01:12;;;;;;;;;;;21.70;41.90;;;;;;483758;246;1256;-49
2022/11/15 09:03:13;;;;;;;;;;;21.60;41.90;;;;;;483729;246;1367;-50
2022/11/15 09:05:15;;;;;;;;;;;21.60;41.90;;;;;;483901;246;1214;-49
2022/11/15 09:07:17;;;;;;;;;;;21.60;42.00;;;;;;483716;246;1196;-49
2022/11/15 09:09:18;;;;;;;;;;;21.60;42.10;;;;;;483796;246;1195;-49
2022/11/15 09:11:21;;;;;;;;;;;21.60;42.10;;;;;;483864;246;1193;-49
2022/11/15 09:13:21;;;;;;;;;;;21.80;50.00;;;;;;483616;246;1841;-48
2022/11/15 09:15:22;;;;;;;;;;;21.70;48.90;;;;;;483681;246;1266;-49
2022/11/15 09:17:23;;;;;;;;;;;21.60;47.60;;;;;;483753;246;2251;-49
2022/11/15 09:19:25;;;;;;;;;;;21.60;47.10;;;;;;483691;246;1305;-49
2022/11/15 09:21:26;;;;;;;;;;;21.60;47.60;;;;;;483775;246;1275;-49
2022/11/15 09:23:27;;;;;;;;;;;21.70;46.70;;;;;;483682;246;1488;-49
2022/11/15 09:25:28;;;;;;;;;;;21.60;46.50;;;;;;483717;246;1318;-49
2022/11/15 09:27:30;;;;;;;;;;;21.70;46.80;;;;;;483837;246;1237;-49
2022/11/15 09:29:31;;;;;;;;;;;21.60;46.80;;;;;;483778;246;1275;-49
2022/11/15 09:31:32;;;;;;;;;;;21.60;46.30;;;;;;483869;243;1306;-49
2022/11/15 09:33:34;;;;;;;;;;;21.70;46.30;;;;;;483934;246;1342;-49
2022/11/15 09:35:35;;;;;;;;;;;21.70;46.30;;;;;;483710;246;2199;-50
2022/11/15 09:37:37;;;;;;;;;;;21.80;46.20;;;;;;483757;246;1187;-49
2022/11/15 09:39:38;;;;;;;;;;;21.80;45.90;;;;;;483878;246;1239;-49
2022/11/15 09:41:39;;;;;;;;;;;22.00;45.30;;;;;;483821;246;1101;-49
2022/11/15 09:43:41;;;;;;;;;;;22.20;44.70;;;;;;483679;246;1388;-49
2022/11/15 09:45:42;;;;;;;;;;;22.30;46.90;;;;;;483733;246;1216;-49
2022/11/15 09:47:43;;;;;;;;;;;22.30;58.00;;;;;;483818;246;1250;-48
2022/11/15 09:49:45;;;;;;;;;;;22.30;59.00;;;;;;483575;246;1198;-50
2022/11/15 09:51:49;;;;;;;;;;;22.20;57.50;;;;;;483861;246;1237;-50
2022/11/15 09:53:50;;;;;;;;;;;22.00;56.50;;;;;;483730;246;1232;-49
2022/11/15 09:55:52;;;;;;;;;;;22.20;56.00;;;;;;483962;246;2144;-49
2022/11/15 09:57:53;;;;;;;;;;;22.00;56.90;;;;;;483782;246;1207;-50
2022/11/15 09:59:54;;;;;;;;;;;22.10;54.10;;;;;;483696;246;1191;-49
2022/11/15 10:01:56;;;;;;;;;;;22.00;54.00;;;;;;483903;246;1242;-48
2022/11/15 10:03:57;;;;;;;;;;;21.90;54.10;;;;;;483829;246;1231;-49
2022/11/15 10:05:58;;;;;;;;;;;21.90;54.00;;;;;;483734;246;1220;-48
2022/11/15 10:08:00;;;;;;;;;;;22.00;53.70;;;;;;483709;246;1183;-49
2022/11/15 10:10:01;;;;;;;;;;;22.00;54.30;;;;;;483712;246;1297;-49
2022/11/15 10:12:02;;;;;;;;;;;22.00;54.30;;;;;;483630;246;1277;-48
2022/11/15 10:14:04;;;;;;;;;;;21.90;54.30;;;;;;483768;246;1236;-48
2022/11/15 10:16:05;;;;;;;;;;;21.90;54.50;;;;;;483801;246;2160;-49
2022/11/15 10:18:06;;;;;;;;;;;21.90;54.90;;;;;;483752;246;1222;-49
2022/11/15 10:20:08;;;;;;;;;;;21.90;55.10;;;;;;483758;246;1371;-49
2022/11/15 10:22:09;;;;;;;;;;;21.90;56.00;;;;;;483622;246;1540;-48
2022/11/15 10:24:10;;;;;;;;;;;21.90;56.00;;;;;;483748;246;1232;-49
2022/11/15 10:26:12;;;;;;;;;;;22.00;56.90;;;;;;483734;246;1620;-48
2022/11/15 10:28:14;;;;;;;;;;;22.00;56.00;;;;;;483736;246;1286;-48
2022/11/15 10:30:15;;;;;;;;;;;21.90;56.40;;;;;;483827;246;1377;-49
2022/11/15 10:32:16;;;;;;;;;;;22.00;57.10;;;;;;483808;246;1294;-48
2022/11/15 10:34:19;;;;;;;;;;;22.00;56.80;;;;;;483601;246;1194;-49
2022/11/15 10:36:20;;;;;;;;;;;22.00;57.10;;;;;;483714;246;2141;-49
2022/11/15 10:38:22;;;;;;;;;;;22.00;57.50;;;;;;483973;246;1362;-49
2022/11/15 10:40:23;;;;;;;;;;;22.00;57.00;;;;;;483843;246;1544;-48
2022/11/15 10:42:24;;;;;;;;;;;22.00;57.70;;;;;;484011;246;1168;-48
2022/11/15 10:44:26;;;;;;;;;;;22.10;57.30;;;;;;483661;246;1542;-49
2022/11/15 10:46:27;;;;;;;;;;;22.00;57.60;;;;;;483620;246;1219;-48
2022/11/15 10:48:28;;;;;;;;;;;22.00;57.30;;;;;;483479;246;1185;-48
2022/11/15 10:50:30;;;;;;;;;;;22.00;58.30;;;;;;483530;246;1263;-48
2022/11/15 10:52:31;;;;;;;;;;;22.00;57.90;;;;;;483661;246;1400;-50
2022/11/15 10:54:32;;;;;;;;;;;21.90;57.50;;;;;;483711;246;1330;-48
2022/11/15 10:56:34;;;;;;;;;;;21.90;57.50;;;;;;483508;246;2184;-49
2022/11/15 10:58:35;;;;;;;;;;;22.00;54.10;;;;;;483756;246;1499;-48
2022/11/15 11:00:38;;;;;;;;;;;21.90;53.60;;;;;;483703;246;1600;-49
2022/11/15 11:02:38;;;;;;;;;;;22.00;54.10;;;;;;483551;246;1301;-48
2022/11/15 11:04:39;;;;;;;;;;;22.00;54.20;;;;;;483677;246;1271;-48
2022/11/15 11:06:40;;;;;;;;;;;21.90;54.80;;;;;;483692;246;1223;-45
2022/11/15 11:08:42;;;;;;;;;;;22.00;55.20;;;;;;483580;246;1285;-49
2022/11/15 11:10:43;;;;;;;;;;;22.00;55.50;;;;;;483835;246;1241;-49
2022/11/15 11:12:45;;;;;;;;;;;22.00;57.20;;;;;;483826;246;1228;-48
2022/11/15 11:14:46;;;;;;;;;;;22.10;57.80;;;;;;483790;246;1532;-48
2022/11/15 11:16:49;;;;;;;;;;;;;;;;;;483881;246;2173;-48
2022/11/15 11:18:50;;;;;;;;;;;21.90;55.20;;;;;;483801;245;1807;-48
2022/11/15 11:20:51;;;;;;;;;;;22.00;56.40;;;;;;483771;246;1213;-48
2022/11/15 11:22:52;;;;;;;;;;;22.10;57.10;;;;;;483690;246;1206;-48
2022/11/15 11:24:54;;;;;;;;;;;22.00;57.50;;;;;;483703;246;1257;-49
2022/11/15 11:26:55;;;;;;;;;;;22.10;57.90;;;;;;483744;246;1168;-49
2022/11/15 11:28:56;;;;;;;;;;;22.00;58.20;;;;;;483634;246;1504;-49
2022/11/15 11:30:58;;;;;;;;;;;22.10;58.60;;;;;;483604;246;1618;-49
2022/11/15 11:32:59;;;;;;;;;;;22.10;58.90;;;;;;483587;246;1279;-49
2022/11/15 11:35:01;;;;;;;;;;;22.00;59.30;;;;;;483644;246;1424;-50
2022/11/15 11:37:02;;;;;;;;;;;22.10;60.10;;;;;;483640;246;2188;-49
2022/11/15 11:39:05;;;;;;;;;;;22.00;61.60;;;;;;483714;246;1283;-49
2022/11/15 11:41:05;;;;;;;;;;;22.00;61.50;;;;;;483526;246;1791;-49
2022/11/15 11:43:07;;;;;;;;;;;22.10;62.10;;;;;;483568;246;1361;-49
2022/11/15 11:45:07;;;;;;;;;;;22.00;62.80;;;;;;483497;246;1779;-48
2022/11/15 11:47:09;;;;;;;;;;;22.00;63.10;;;;;;483515;246;1210;-50
2022/11/15 11:49:10;;;;;;;;;;;22.00;63.40;;;;;;483554;246;1455;-49
2022/11/15 11:51:11;;;;;;;;;;;22.00;63.50;;;;;;483599;242;1231;-49
2022/11/15 11:53:13;;;;;;;;;;;22.00;63.50;;;;;;483556;246;1434;-49
2022/11/15 11:55:14;;;;;;;;;;;22.10;63.70;;;;;;483688;246;1222;-48
2022/11/15 11:57:16;;;;;;;;;;;21.90;63.80;;;;;;483561;246;3029;-49
2022/11/15 11:59:17;;;;;;;;;;;22.00;63.60;;;;;;483468;246;1603;-50
2022/11/15 12:01:18;;;;;;;;;;;21.90;63.80;;;;;;483672;246;1240;-50
2022/11/15 12:03:20;;;;;;;;;;;21.90;64.00;;;;;;483606;246;1387;-49
2022/11/15 12:05:21;;;;;;;;;;;21.90;64.10;;;;;;483641;246;1341;-49
2022/11/15 12:07:22;;;;;;;;;;;21.90;64.00;;;;;;483691;246;1260;-49
2022/11/15 12:09:24;;;;;;;;;;;21.90;64.50;;;;;;483584;246;1288;-49